createdAt,value
2024-05-09T00:02:19.082Z,63.42
2024-05-09T00:04:45.781Z,63.67
2024-05-09T00:07:12.420Z,64.03
2024-05-09T00:09:38.986Z,63.40
2024-05-09T00:12:05.715Z,63.91
2024-05-09T00:14:32.410Z,63.82
2024-05-09T00:16:59.016Z,67.83
2024-05-09T00:19:25.802Z,66.97
2024-05-09T00:21:52.440Z,65.54
2024-05-09T00:24:19.010Z,64.88
2024-05-09T00:26:45.561Z,65.20
2024-05-09T00:29:12.164Z,64.40
2024-05-09T00:31:38.725Z,64.89
2024-05-09T00:34:05.453Z,64.39
2024-05-09T00:36:32.261Z,64.60
2024-05-09T00:38:58.807Z,64.94
2024-05-09T00:41:25.405Z,64.41
2024-05-09T00:43:52.050Z,64.44
2024-05-09T00:46:18.675Z,64.17
2024-05-09T00:48:45.309Z,64.17
2024-05-09T00:51:12.020Z,64.32
2024-05-09T00:53:38.936Z,64.53
2024-05-09T00:56:05.691Z,64.77
2024-05-09T00:58:32.277Z,64.74
2024-05-09T01:00:58.878Z,65.19
2024-05-09T01:03:26.072Z,65.67
2024-05-09T01:05:53.314Z,65.15
2024-05-09T01:08:20.364Z,64.78
2024-05-09T01:10:48.638Z,65.50
2024-05-09T01:13:15.910Z,64.85
2024-05-09T01:15:42.887Z,66.04
2024-05-09T01:18:10.729Z,65.76
2024-05-09T01:20:42.437Z,65.58
2024-05-09T01:23:12.054Z,65.73
2024-05-09T01:25:39.658Z,66.04
2024-05-09T01:28:06.701Z,66.09
2024-05-09T01:30:36.211Z,65.75
2024-05-09T01:33:05.386Z,65.27
2024-05-09T01:35:33.597Z,66.20
2024-05-09T01:38:00.646Z,66.94
2024-05-09T01:40:36.388Z,66.85
2024-05-09T01:43:06.220Z,66.37
2024-05-09T01:45:33.252Z,67.02
2024-05-09T01:48:00.655Z,66.56
2024-05-09T01:52:57.074Z,66.64
2024-05-09T01:55:23.717Z,67.19
2024-05-09T01:57:50.277Z,67.41
2024-05-09T02:00:22.430Z,66.68
2024-05-09T02:02:57.347Z,66.79
2024-05-09T02:05:24.056Z,68.38
2024-05-09T02:07:50.702Z,68.01
2024-05-09T02:10:23.467Z,67.75
2024-05-09T02:12:56.797Z,67.94
2024-05-09T02:15:23.375Z,68.35
2024-05-09T02:17:50.605Z,69.20
2024-05-09T02:20:26.740Z,68.73
2024-05-09T02:22:56.878Z,69.21
2024-05-09T02:25:23.452Z,68.76
2024-05-09T02:27:50.008Z,69.04
2024-05-09T02:30:22.899Z,68.58
2024-05-09T02:32:57.168Z,68.86
2024-05-09T02:35:23.908Z,69.41
2024-05-09T02:37:50.606Z,68.04
2024-05-09T02:40:25.207Z,68.59
2024-05-09T02:42:55.630Z,68.62
2024-05-09T02:45:22.213Z,67.88
2024-05-09T02:47:49.024Z,68.32
2024-05-09T02:50:19.244Z,70.36
2024-05-09T02:52:50.069Z,68.40
2024-05-09T02:55:17.026Z,68.32
2024-05-09T02:57:44.016Z,67.71
2024-05-09T03:00:18.475Z,67.50
2024-05-09T03:02:49.534Z,68.41
2024-05-09T03:05:16.622Z,67.65
2024-05-09T03:07:43.661Z,67.95
2024-05-09T03:10:18.318Z,68.32
2024-05-09T03:12:49.390Z,69.05
2024-05-09T03:15:16.315Z,68.87
2024-05-09T03:17:43.548Z,68.94
2024-05-09T03:20:17.552Z,68.47
2024-05-09T03:22:52.696Z,69.80
2024-05-09T03:25:20.924Z,69.28
2024-05-09T03:27:47.863Z,68.68
2024-05-09T03:30:26.074Z,69.69
2024-05-09T03:33:01.957Z,68.66
2024-05-09T03:35:29.196Z,69.36
2024-05-09T03:37:56.275Z,69.32
2024-05-09T03:40:26.572Z,69.18
2024-05-09T03:42:56.072Z,69.02
2024-05-09T03:45:23.007Z,68.57
2024-05-09T03:47:50.043Z,68.50
2024-05-09T03:50:22.783Z,67.63
2024-05-09T03:52:56.614Z,67.26
2024-05-09T03:55:23.545Z,67.54
2024-05-09T03:57:50.657Z,67.11
2024-05-09T04:00:22.752Z,66.93
2024-05-09T04:02:57.919Z,69.56
2024-05-09T04:05:25.110Z,69.51
2024-05-09T04:07:52.236Z,68.48
2024-05-09T04:10:27.703Z,67.69
2024-05-09T04:12:59.483Z,66.85
2024-05-09T04:15:26.456Z,67.56
2024-05-09T04:17:53.706Z,66.85
2024-05-09T04:20:32.856Z,67.24
2024-05-09T04:23:05.223Z,68.03
2024-05-09T04:25:32.359Z,67.71
2024-05-09T04:27:59.446Z,66.95
2024-05-09T04:30:35.938Z,66.80
2024-05-09T04:33:07.117Z,67.72
2024-05-09T04:35:35.528Z,66.30
2024-05-09T04:38:02.584Z,65.87
2024-05-09T04:40:34.153Z,65.87
2024-05-09T04:43:03.373Z,66.55
2024-05-09T04:45:30.332Z,66.34
2024-05-09T04:47:57.716Z,67.93
2024-05-09T04:50:33.369Z,66.65
2024-05-09T04:53:04.744Z,67.26
2024-05-09T04:55:32.023Z,66.97
2024-05-09T04:57:58.959Z,66.17
2024-05-09T05:00:32.691Z,66.32
2024-05-09T05:03:03.761Z,65.84
2024-05-09T05:05:30.889Z,65.84
2024-05-09T05:07:57.883Z,65.42
2024-05-09T05:10:33.067Z,65.14
2024-05-09T05:13:02.589Z,65.33
2024-05-09T05:15:29.521Z,66.15
2024-05-09T05:17:56.782Z,65.52
2024-05-09T05:20:30.947Z,64.93
2024-05-09T05:23:00.947Z,64.18
2024-05-09T05:25:28.044Z,62.96
2024-05-09T05:27:55.021Z,62.53
2024-05-09T05:30:28.722Z,62.53
2024-05-09T05:33:00.345Z,59.61
2024-05-09T05:35:27.710Z,59.25
2024-05-09T05:37:54.833Z,55.73
2024-05-09T05:40:28.604Z,54.03
2024-05-09T05:43:02.801Z,55.19
2024-05-09T05:45:29.780Z,54.71
2024-05-09T05:47:57.051Z,52.42
2024-05-09T05:50:31.930Z,51.49
2024-05-09T05:53:02.638Z,51.79
2024-05-09T05:55:29.779Z,49.34
2024-05-09T05:57:56.761Z,48.79
2024-05-09T06:00:29.993Z,49.33
2024-05-09T06:03:04.563Z,47.99
2024-05-09T06:05:31.717Z,47.67
2024-05-09T06:07:58.803Z,47.27
2024-05-09T06:10:30.263Z,46.72
2024-05-09T06:13:04.347Z,46.99
2024-05-09T06:15:31.308Z,46.26
2024-05-09T06:17:58.607Z,45.84
2024-05-09T06:20:34.646Z,45.51
2024-05-09T06:23:04.388Z,45.60
2024-05-09T06:25:31.652Z,44.88
2024-05-09T06:27:58.610Z,46.42
2024-05-09T06:30:30.944Z,49.91
2024-05-09T06:33:05.822Z,46.93
2024-05-09T06:35:33.375Z,45.53
2024-05-09T06:38:00.667Z,46.94
2024-05-09T06:40:36.246Z,44.89
2024-05-09T06:43:05.917Z,44.07
2024-05-09T06:45:32.869Z,44.62
2024-05-09T06:47:59.869Z,46.87
2024-05-09T06:50:31.072Z,49.21
2024-05-09T06:53:02.428Z,50.42
2024-05-09T06:55:29.174Z,50.56
2024-05-09T06:57:55.757Z,48.01
2024-05-09T07:00:27.651Z,46.22
2024-05-09T07:03:05.363Z,43.89
2024-05-09T07:05:32.603Z,42.92
2024-05-09T07:07:59.207Z,41.50
2024-05-09T07:10:32.619Z,41.11
2024-05-09T07:13:01.484Z,40.22
2024-05-09T07:15:28.071Z,39.11
2024-05-09T07:17:54.848Z,38.12
2024-05-09T07:20:31.635Z,38.38
2024-05-09T07:23:01.370Z,39.54
2024-05-09T07:25:27.990Z,38.44
2024-05-09T07:27:54.540Z,38.26
2024-05-09T07:30:27.547Z,36.90
2024-05-09T07:32:59.759Z,36.67
2024-05-09T07:35:26.781Z,36.29
2024-05-09T07:37:53.541Z,35.46
2024-05-09T07:40:28.702Z,34.84
2024-05-09T07:43:01.639Z,34.52
2024-05-09T07:45:45.010Z,32.99
2024-05-09T07:49:45.264Z,32.17
2024-05-09T07:53:40.585Z,31.80
2024-05-09T07:56:12.178Z,31.75
2024-05-09T07:58:39.477Z,33.37
2024-05-09T08:01:06.951Z,38.02
2024-05-09T08:03:34.381Z,34.00
2024-05-09T08:06:01.660Z,33.86
2024-05-09T08:08:28.616Z,32.82
2024-05-09T08:10:55.684Z,33.43
2024-05-09T08:13:22.904Z,37.41
2024-05-09T08:15:50.047Z,32.41
2024-05-09T08:18:17.126Z,30.64
2024-05-09T08:20:44.215Z,29.37
2024-05-09T08:23:11.193Z,29.66
2024-05-09T08:25:38.202Z,28.41
2024-05-09T08:28:05.226Z,29.65
2024-05-09T08:30:36.871Z,28.08
2024-05-09T08:33:05.867Z,26.35
2024-05-09T08:35:33.510Z,26.50
2024-05-09T08:38:00.604Z,26.63
2024-05-09T08:40:33.751Z,25.06
2024-05-09T08:43:03.230Z,30.97
2024-05-09T08:45:30.593Z,29.26
2024-05-09T08:47:57.626Z,27.08
2024-05-09T08:50:32.265Z,26.78
2024-05-09T08:53:05.287Z,30.16
2024-05-09T08:55:32.298Z,31.58
2024-05-09T08:57:59.357Z,27.59
2024-05-09T09:00:34.210Z,25.84
2024-05-09T09:03:05.101Z,24.45
2024-05-09T09:05:32.462Z,25.99
2024-05-09T09:07:59.500Z,30.07
2024-05-09T09:10:31.928Z,31.62
2024-05-09T09:13:00.146Z,32.60
2024-05-09T09:15:27.216Z,32.81
2024-05-09T09:17:54.243Z,33.87
2024-05-09T09:20:26.438Z,34.64
2024-05-09T09:23:00.494Z,34.81
2024-05-09T09:25:27.414Z,36.64
2024-05-09T09:27:54.433Z,36.57
2024-05-09T09:30:34.429Z,35.74
2024-05-09T09:33:04.877Z,36.18
2024-05-09T09:35:32.051Z,36.31
2024-05-09T09:37:59.028Z,34.64
2024-05-09T09:40:32.086Z,33.33
2024-05-09T09:43:00.952Z,29.94
2024-05-09T09:45:27.993Z,28.04
2024-05-09T09:47:55.129Z,33.67
2024-05-09T09:50:27.910Z,34.46
2024-05-09T09:53:00.910Z,35.50
2024-05-09T09:55:27.858Z,34.63
2024-05-09T09:57:55.025Z,34.76
2024-05-09T10:00:27.203Z,35.65
2024-05-09T10:02:59.432Z,35.13
2024-05-09T10:05:26.997Z,35.97
2024-05-09T10:07:54.194Z,33.74
2024-05-09T10:10:27.309Z,34.22
2024-05-09T10:12:58.907Z,31.25
2024-05-09T10:15:25.878Z,29.50
2024-05-09T10:17:53.012Z,29.20
2024-05-09T10:20:22.215Z,28.58
2024-05-09T10:22:54.669Z,29.55
2024-05-09T10:25:21.855Z,29.83
2024-05-09T10:27:49.013Z,32.21
2024-05-09T10:30:25.343Z,31.74
2024-05-09T10:32:56.538Z,31.15
2024-05-09T10:35:23.626Z,30.86
2024-05-09T10:37:50.568Z,31.34
2024-05-09T10:40:25.739Z,34.34
2024-05-09T10:42:56.278Z,33.53
2024-05-09T10:45:23.306Z,35.63
2024-05-09T10:47:50.364Z,39.55
2024-05-09T10:50:25.053Z,38.22
2024-05-09T10:52:55.613Z,37.80
2024-05-09T10:55:22.761Z,37.42
2024-05-09T10:57:49.937Z,38.26
2024-05-09T11:00:26.973Z,37.38
2024-05-09T11:02:57.103Z,36.49
2024-05-09T11:05:23.770Z,36.76
2024-05-09T11:07:50.397Z,36.50
2024-05-09T11:10:24.430Z,35.17
2024-05-09T11:12:54.122Z,33.20
2024-05-09T11:15:20.697Z,32.36
2024-05-09T11:17:47.404Z,34.33
2024-05-09T11:20:22.573Z,33.16
2024-05-09T11:22:53.351Z,33.24
2024-05-09T11:25:19.915Z,34.20
2024-05-09T11:27:46.565Z,34.83
2024-05-09T11:30:17.474Z,34.56
2024-05-09T11:32:50.351Z,35.52
2024-05-09T11:35:17.052Z,34.98
2024-05-09T11:37:43.795Z,35.74
2024-05-09T11:40:16.830Z,37.36
2024-05-09T11:42:49.948Z,36.99
2024-05-09T11:45:18.129Z,37.33
2024-05-09T11:47:44.867Z,38.05
2024-05-09T11:50:19.058Z,36.33
2024-05-09T11:52:49.233Z,38.32
2024-05-09T11:55:15.972Z,38.92
2024-05-09T11:57:42.636Z,38.94
2024-05-09T12:00:11.909Z,38.86
2024-05-09T12:02:41.727Z,39.87
2024-05-09T12:05:08.689Z,36.55
2024-05-09T12:07:35.752Z,33.57
2024-05-09T12:10:03.481Z,34.99
2024-05-09T12:12:32.235Z,35.99
2024-05-09T12:14:59.919Z,36.60
2024-05-09T12:17:27.021Z,36.98
2024-05-09T12:19:54.052Z,32.96
2024-05-09T12:22:21.131Z,31.72
2024-05-09T12:24:48.110Z,33.63
2024-05-09T12:27:15.100Z,29.99
2024-05-09T12:29:42.040Z,28.80
2024-05-09T12:32:09.292Z,29.60
2024-05-09T12:34:39.362Z,31.03
2024-05-09T12:37:06.691Z,28.50
2024-05-09T12:39:33.704Z,29.44
2024-05-09T12:42:00.786Z,29.47
2024-05-09T12:44:27.783Z,31.48
2024-05-09T12:46:54.772Z,29.66
2024-05-09T12:49:21.971Z,28.50
2024-05-09T12:51:49.160Z,28.93
2024-05-09T12:54:16.104Z,30.32
2024-05-09T12:56:42.679Z,32.70
2024-05-09T12:59:09.269Z,33.70
2024-05-09T13:01:35.927Z,33.01
2024-05-09T13:04:02.857Z,34.43
2024-05-09T13:06:29.598Z,35.11
2024-05-09T13:08:56.151Z,35.70
2024-05-09T13:11:22.699Z,36.88
2024-05-09T13:13:49.261Z,37.79
2024-05-09T13:16:15.953Z,37.50
2024-05-09T13:18:42.683Z,38.34
2024-05-09T13:21:09.312Z,39.46
2024-05-09T13:23:35.853Z,38.98
2024-05-09T13:26:02.394Z,38.33
2024-05-09T13:28:28.961Z,37.59
2024-05-09T13:30:55.660Z,38.31
2024-05-09T13:33:22.332Z,38.35
2024-05-09T13:35:50.776Z,38.37
2024-05-09T13:38:17.764Z,38.82
2024-05-09T13:40:44.644Z,38.49
2024-05-09T13:43:11.570Z,38.73
2024-05-09T13:45:38.193Z,39.35
2024-05-09T13:48:04.926Z,39.06
2024-05-09T13:50:35.463Z,38.29
2024-05-09T13:53:03.546Z,38.84
2024-05-09T13:55:30.591Z,39.40
2024-05-09T13:57:57.668Z,40.38
2024-05-09T14:02:54.668Z,40.67
2024-05-09T14:05:21.882Z,40.33
2024-05-09T14:07:48.944Z,39.65
2024-05-09T14:10:23.095Z,39.20
2024-05-09T14:12:55.722Z,40.22
2024-05-09T14:15:22.866Z,39.86
2024-05-09T14:17:49.840Z,40.08
2024-05-09T14:20:28.426Z,40.19
2024-05-09T14:23:01.333Z,40.28
2024-05-09T14:25:28.657Z,40.65
2024-05-09T14:27:55.824Z,40.18
2024-05-09T14:30:30.691Z,40.80
2024-05-09T14:33:03.640Z,41.92
2024-05-09T14:35:30.774Z,40.90
2024-05-09T14:37:57.719Z,41.15
2024-05-09T14:40:36.363Z,41.19
2024-05-09T14:43:08.477Z,41.25
2024-05-09T14:45:35.860Z,41.70
2024-05-09T14:48:03.570Z,41.45
2024-05-09T14:50:36.206Z,41.41
2024-05-09T14:53:06.666Z,41.79
2024-05-09T14:55:34.238Z,41.74
2024-05-09T14:58:01.374Z,41.58
2024-05-09T15:00:33.308Z,41.70
2024-05-09T15:03:03.263Z,41.52
2024-05-09T15:05:30.491Z,41.21
2024-05-09T15:07:57.699Z,40.77
2024-05-09T15:10:33.658Z,40.52
2024-05-09T15:13:03.111Z,40.59
2024-05-09T15:15:30.372Z,40.56
2024-05-09T15:17:57.460Z,40.69
2024-05-09T15:20:32.953Z,40.24
2024-05-09T15:23:03.064Z,41.54
2024-05-09T15:25:30.738Z,40.78
2024-05-09T15:27:57.922Z,41.06
2024-05-09T15:30:30.280Z,41.47
2024-05-09T15:33:00.061Z,41.18
2024-05-09T15:35:27.315Z,41.22
2024-05-09T15:37:57.016Z,40.98
2024-05-09T15:40:31.724Z,40.26
2024-05-09T15:43:05.896Z,40.49
2024-05-09T15:45:32.780Z,40.56
2024-05-09T15:47:59.716Z,40.73
2024-05-09T15:50:36.120Z,40.91
2024-05-09T15:53:06.870Z,41.22
2024-05-09T15:55:34.709Z,41.29
2024-05-09T15:58:01.597Z,41.16
2024-05-09T16:00:36.096Z,41.43
2024-05-09T16:03:06.578Z,41.96
2024-05-09T16:05:33.485Z,41.98
2024-05-09T16:08:00.250Z,42.15
2024-05-09T16:10:32.361Z,42.58
2024-05-09T16:13:00.680Z,42.86
2024-05-09T16:15:27.398Z,42.44
2024-05-09T16:17:54.031Z,41.83
2024-05-09T16:20:33.282Z,42.11
2024-05-09T16:23:05.041Z,41.90
2024-05-09T16:25:31.646Z,41.85
2024-05-09T16:27:58.359Z,41.82
2024-05-09T16:30:31.797Z,41.67
2024-05-09T16:33:01.916Z,41.05
2024-05-09T16:35:28.717Z,40.67
2024-05-09T16:37:55.258Z,40.22
2024-05-09T16:40:29.808Z,41.50
2024-05-09T16:43:03.449Z,41.95
2024-05-09T16:45:30.633Z,42.26
2024-05-09T16:47:57.832Z,41.73
2024-05-09T16:50:29.539Z,41.95
2024-05-09T16:53:00.191Z,41.98
2024-05-09T16:55:27.585Z,41.71
2024-05-09T16:57:54.939Z,41.64
2024-05-09T17:00:31.788Z,41.50
2024-05-09T17:03:07.200Z,42.12
2024-05-09T17:05:34.897Z,41.68
2024-05-09T17:08:02.459Z,41.67
2024-05-09T17:10:33.275Z,41.73
2024-05-09T17:13:02.441Z,42.19
2024-05-09T17:15:30.086Z,42.06
2024-05-09T17:17:57.153Z,41.80
2024-05-09T17:20:31.759Z,41.18
2024-05-09T17:23:02.049Z,41.58
2024-05-09T17:25:29.106Z,41.91
2024-05-09T17:27:56.106Z,41.59
2024-05-09T17:30:28.983Z,41.85
2024-05-09T17:33:02.137Z,41.68
2024-05-09T17:35:29.296Z,41.93
2024-05-09T17:37:56.252Z,41.57
2024-05-09T17:40:30.074Z,41.85
2024-05-09T17:43:00.503Z,42.84
2024-05-09T17:45:27.519Z,42.55
2024-05-09T17:47:54.667Z,42.08
2024-05-09T17:50:27.926Z,42.66
2024-05-09T17:53:01.661Z,42.85
2024-05-09T17:55:28.952Z,42.47
2024-05-09T17:57:56.092Z,42.64
2024-05-09T18:00:33.114Z,42.71
2024-05-09T18:03:05.792Z,42.92
2024-05-09T18:05:33.177Z,42.88
2024-05-09T18:08:00.372Z,42.75
2024-05-09T18:10:35.129Z,43.65
2024-05-09T18:13:05.598Z,43.46
2024-05-09T18:15:33.180Z,44.25
2024-05-09T18:18:00.478Z,43.87
2024-05-09T18:20:37.542Z,43.85
2024-05-09T18:23:10.070Z,43.80
2024-05-09T18:25:36.994Z,43.93
2024-05-09T18:28:04.051Z,44.30
2024-05-09T18:30:34.583Z,44.11
2024-05-09T18:33:03.687Z,44.39
2024-05-09T18:35:30.907Z,43.95
2024-05-09T18:37:57.849Z,44.22
2024-05-09T18:40:32.801Z,44.49
2024-05-09T18:43:03.127Z,44.40
2024-05-09T18:45:30.859Z,44.53
2024-05-09T18:47:58.237Z,44.62
2024-05-09T18:50:34.223Z,44.81
2024-05-09T18:53:04.784Z,45.09
2024-05-09T18:55:31.767Z,45.21
2024-05-09T18:57:58.726Z,45.59
2024-05-09T19:00:33.955Z,45.78
2024-05-09T19:03:05.596Z,45.49
2024-05-09T19:05:33.547Z,45.81
2024-05-09T19:08:00.701Z,46.15
2024-05-09T19:10:33.802Z,46.43
2024-05-09T19:13:05.430Z,46.67
2024-05-09T19:15:36.009Z,47.18
2024-05-09T19:18:03.079Z,46.61
2024-05-09T19:20:34.359Z,46.48
2024-05-09T19:23:03.008Z,46.97
2024-05-09T19:25:30.062Z,47.03
2024-05-09T19:27:57.115Z,47.12
2024-05-09T19:30:32.923Z,47.30
2024-05-09T19:33:05.372Z,47.81
2024-05-09T19:35:32.596Z,48.30
2024-05-09T19:37:59.678Z,48.17
2024-05-09T19:40:31.430Z,48.35
2024-05-09T19:43:00.688Z,48.76
2024-05-09T19:45:27.827Z,49.01
2024-05-09T19:47:55.041Z,48.97
2024-05-09T19:50:30.809Z,48.86
2024-05-09T19:53:04.269Z,49.10
2024-05-09T19:55:31.278Z,49.39
2024-05-09T19:57:59.910Z,49.40
2024-05-09T20:00:32.988Z,49.49
2024-05-09T20:03:03.225Z,49.54
2024-05-09T20:05:30.751Z,49.44
2024-05-09T20:07:58.067Z,49.45
2024-05-09T20:10:31.385Z,49.71
2024-05-09T20:13:00.534Z,49.70
2024-05-09T20:15:27.651Z,50.00
2024-05-09T20:17:55.150Z,50.83
2024-05-09T20:20:32.508Z,50.37
2024-05-09T20:23:04.651Z,50.25
2024-05-09T20:25:31.592Z,51.25
2024-05-09T20:27:58.658Z,51.11
2024-05-09T20:30:31.599Z,51.24
2024-05-09T20:33:00.655Z,50.74
2024-05-09T20:35:27.852Z,50.57
2024-05-09T20:37:54.801Z,50.44
2024-05-09T20:40:28.920Z,50.37
2024-05-09T20:43:00.115Z,50.31
2024-05-09T20:45:27.249Z,51.14
2024-05-09T20:47:54.355Z,51.28
2024-05-09T20:50:29.056Z,50.79
2024-05-09T20:53:03.936Z,50.91
2024-05-09T20:55:31.015Z,51.22
2024-05-09T20:57:58.031Z,51.12
2024-05-09T21:00:34.540Z,51.04
2024-05-09T21:03:07.021Z,51.63
2024-05-09T21:05:35.189Z,52.51
2024-05-09T21:08:02.902Z,52.63
2024-05-09T21:10:32.998Z,52.91
2024-05-09T21:13:01.380Z,52.35
2024-05-09T21:15:28.649Z,52.51
2024-05-09T21:17:55.621Z,52.66
2024-05-09T21:20:28.631Z,53.17
2024-05-09T21:22:58.076Z,53.36
2024-05-09T21:25:25.113Z,52.55
2024-05-09T21:27:52.200Z,54.02
2024-05-09T21:30:31.183Z,53.68
2024-05-09T21:33:05.859Z,52.74
2024-05-09T21:35:33.005Z,52.98
2024-05-09T21:37:59.940Z,53.20
2024-05-09T21:40:33.803Z,53.19
2024-05-09T21:43:02.812Z,54.24
2024-05-09T21:45:29.969Z,53.53
2024-05-09T21:47:57.062Z,53.12
2024-05-09T21:50:31.890Z,53.27
2024-05-09T21:53:05.870Z,53.80
2024-05-09T21:55:32.910Z,53.59
2024-05-09T21:57:59.918Z,53.54
2024-05-09T22:00:34.625Z,53.48
2024-05-09T22:03:04.548Z,53.42
2024-05-09T22:05:31.720Z,54.03
2024-05-09T22:07:58.861Z,54.64
2024-05-09T22:10:30.851Z,54.08
2024-05-09T22:13:01.770Z,53.58
2024-05-09T22:15:28.974Z,53.50
2024-05-09T22:17:56.844Z,54.56
2024-05-09T22:20:33.076Z,55.00
2024-05-09T22:23:03.520Z,54.56
2024-05-09T22:25:31.136Z,54.80
2024-05-09T22:27:59.037Z,55.43
2024-05-09T22:30:34.388Z,57.45
2024-05-09T22:33:05.341Z,56.31
2024-05-09T22:35:32.488Z,56.54
2024-05-09T22:37:59.452Z,58.93
2024-05-09T22:40:38.156Z,58.26
2024-05-09T22:43:13.428Z,58.37
2024-05-09T22:45:40.591Z,56.47
2024-05-09T22:48:07.765Z,56.12
2024-05-09T22:50:35.194Z,56.31
2024-05-09T22:53:02.282Z,55.65
2024-05-09T22:55:29.245Z,55.88
2024-05-09T22:57:56.363Z,55.01
2024-05-09T23:00:31.259Z,57.13
2024-05-09T23:02:59.744Z,58.29
2024-05-09T23:05:26.992Z,58.84
2024-05-09T23:07:54.044Z,57.76
2024-05-09T23:10:28.049Z,56.61
2024-05-09T23:13:01.539Z,55.87
2024-05-09T23:15:28.776Z,55.74
2024-05-09T23:17:55.890Z,55.60
2024-05-09T23:20:33.294Z,55.72
2024-05-09T23:23:04.883Z,55.70
2024-05-09T23:25:31.844Z,56.05
2024-05-09T23:27:58.881Z,56.04
2024-05-09T23:30:34.090Z,56.28
2024-05-09T23:33:05.447Z,56.22
2024-05-09T23:35:32.654Z,56.40
2024-05-09T23:37:59.810Z,56.86
2024-05-09T23:40:36.196Z,56.97
2024-05-09T23:43:06.331Z,56.94
2024-05-09T23:45:33.601Z,56.97
2024-05-09T23:48:01.072Z,56.90
2024-05-09T23:50:34.525Z,57.58
2024-05-09T23:53:04.755Z,59.43
2024-05-09T23:55:32.208Z,58.94
2024-05-09T23:57:59.648Z,59.72
